sensor_id;sensor_type;location;lat;lon;timestamp;pressure;altitude;pressure_sealevel;temperature;humidity
84957;BME280;75252;45.438;-73.814;2024-03-07T00:00:04;101764.25;;;4.32;79.32
84957;BME280;75252;45.438;-73.814;2024-03-07T00:02:32;101767.75;;;4.37;78.45
84957;BME280;75252;45.438;-73.814;2024-03-07T00:04:59;101779.13;;;4.35;79.60
84957;BME280;75252;45.438;-73.814;2024-03-07T00:07:25;101776.50;;;4.33;78.65
84957;BME280;75252;45.438;-73.814;2024-03-07T00:09:51;101775.63;;;4.36;78.56
84957;BME280;75252;45.438;-73.814;2024-03-07T00:12:19;101773.88;;;4.41;77.19
84957;BME280;75252;45.438;-73.814;2024-03-07T00:14:45;101775.63;;;4.31;78.14
84957;BME280;75252;45.438;-73.814;2024-03-07T00:17:11;101779.13;;;4.38;77.60
84957;BME280;75252;45.438;-73.814;2024-03-07T00:19:38;101778.22;;;4.40;78.47
84957;BME280;75252;45.438;-73.814;2024-03-07T00:22:05;101782.66;;;4.34;78.07
84957;BME280;75252;45.438;-73.814;2024-03-07T00:24:31;101785.25;;;4.32;78.49
84957;BME280;75252;45.438;-73.814;2024-03-07T00:26:56;101791.38;;;4.34;77.86
84957;BME280;75252;45.438;-73.814;2024-03-07T00:29:22;101790.50;;;4.41;77.49
84957;BME280;75252;45.438;-73.814;2024-03-07T00:31:49;101787.88;;;4.40;76.48
84957;BME280;75252;45.438;-73.814;2024-03-07T00:34:15;101787.00;;;4.39;76.43
84957;BME280;75252;45.438;-73.814;2024-03-07T00:36:43;101799.25;;;4.39;75.55
84957;BME280;75252;45.438;-73.814;2024-03-07T00:39:09;101783.50;;;4.37;77.74
84957;BME280;75252;45.438;-73.814;2024-03-07T00:41:40;101795.75;;;4.43;76.36
84957;BME280;75252;45.438;-73.814;2024-03-07T00:44:07;101801.00;;;4.41;75.67
84957;BME280;75252;45.438;-73.814;2024-03-07T00:46:35;101803.63;;;4.38;75.92
84957;BME280;75252;45.438;-73.814;2024-03-07T00:49:03;101809.75;;;4.42;75.33
84957;BME280;75252;45.438;-73.814;2024-03-07T00:51:29;101809.75;;;4.48;74.40
84957;BME280;75252;45.438;-73.814;2024-03-07T00:53:55;101808.88;;;4.44;74.88
84957;BME280;75252;45.438;-73.814;2024-03-07T00:56:21;101806.25;;;4.40;75.31
84957;BME280;75252;45.438;-73.814;2024-03-07T00:58:53;101814.13;;;4.43;75.61
84957;BME280;75252;45.438;-73.814;2024-03-07T01:01:19;101804.50;;;4.42;74.46
84957;BME280;75252;45.438;-73.814;2024-03-07T01:03:45;101807.13;;;4.37;75.14
84957;BME280;75252;45.438;-73.814;2024-03-07T01:06:11;101796.63;;;4.39;74.51
84957;BME280;75252;45.438;-73.814;2024-03-07T01:08:38;101786.13;;;4.36;74.57
84957;BME280;75252;45.438;-73.814;2024-03-07T01:11:05;101789.63;;;4.44;73.47
84957;BME280;75252;45.438;-73.814;2024-03-07T01:13:40;101786.13;;;4.45;73.96
84957;BME280;75252;45.438;-73.814;2024-03-07T01:16:07;101761.63;;;4.37;73.17
84957;BME280;75252;45.438;-73.814;2024-03-07T01:18:34;101775.63;;;4.37;73.71
84957;BME280;75252;45.438;-73.814;2024-03-07T01:21:03;101780.00;;;4.43;73.59
84957;BME280;75252;45.438;-73.814;2024-03-07T01:23:31;101783.50;;;4.42;73.61
84957;BME280;75252;45.438;-73.814;2024-03-07T01:25:58;101788.75;;;4.42;73.12
84957;BME280;75252;45.438;-73.814;2024-03-07T01:28:25;101783.50;;;4.43;73.82
84957;BME280;75252;45.438;-73.814;2024-03-07T01:30:52;101783.50;;;4.36;74.24
84957;BME280;75252;45.438;-73.814;2024-03-07T01:33:20;101786.13;;;4.33;73.73
84957;BME280;75252;45.438;-73.814;2024-03-07T01:35:47;101790.50;;;4.38;73.22
84957;BME280;75252;45.438;-73.814;2024-03-07T01:38:13;101792.25;;;4.36;73.76
84957;BME280;75252;45.438;-73.814;2024-03-07T01:40:40;101796.63;;;4.37;72.90
84957;BME280;75252;45.438;-73.814;2024-03-07T01:43:07;101799.25;;;4.37;73.58
84957;BME280;75252;45.438;-73.814;2024-03-07T01:45:34;101796.63;;;4.40;73.23
84957;BME280;75252;45.438;-73.814;2024-03-07T01:48:02;101794.00;;;4.37;72.84
84957;BME280;75252;45.438;-73.814;2024-03-07T01:50:29;101794.88;;;4.35;72.46
84957;BME280;75252;45.438;-73.814;2024-03-07T01:52:55;101784.38;;;4.33;73.17
84957;BME280;75252;45.438;-73.814;2024-03-07T01:55:22;101793.13;;;4.32;71.76
84957;BME280;75252;45.438;-73.814;2024-03-07T01:57:50;101781.78;;;4.32;72.51
84957;BME280;75252;45.438;-73.814;2024-03-07T02:00:16;101790.50;;;4.32;72.30
84957;BME280;75252;45.438;-73.814;2024-03-07T02:02:45;101802.75;;;4.39;71.94
84957;BME280;75252;45.438;-73.814;2024-03-07T02:05:12;101801.00;;;4.38;70.93
84957;BME280;75252;45.438;-73.814;2024-03-07T02:07:39;101803.66;;;4.40;69.48
84957;BME280;75252;45.438;-73.814;2024-03-07T02:10:05;101794.88;;;4.45;69.73
84957;BME280;75252;45.438;-73.814;2024-03-07T02:12:32;101797.50;;;4.42;70.13
84957;BME280;75252;45.438;-73.814;2024-03-07T02:14:58;101787.88;;;4.37;70.38
84957;BME280;75252;45.438;-73.814;2024-03-07T02:17:25;101794.88;;;4.42;69.66
84957;BME280;75252;45.438;-73.814;2024-03-07T02:19:52;101797.50;;;4.36;69.20
84957;BME280;75252;45.438;-73.814;2024-03-07T02:22:21;101785.25;;;4.32;69.14
84957;BME280;75252;45.438;-73.814;2024-03-07T02:24:47;101788.75;;;4.40;68.06
84957;BME280;75252;45.438;-73.814;2024-03-07T02:27:13;101789.63;;;4.38;69.44
84957;BME280;75252;45.438;-73.814;2024-03-07T02:29:42;101793.13;;;4.40;69.09
84957;BME280;75252;45.438;-73.814;2024-03-07T02:32:08;101789.63;;;4.38;68.31
84957;BME280;75252;45.438;-73.814;2024-03-07T02:34:35;101787.88;;;4.46;66.87
84957;BME280;75252;45.438;-73.814;2024-03-07T02:37:02;101794.88;;;4.41;67.02
84957;BME280;75252;45.438;-73.814;2024-03-07T02:39:28;101798.38;;;4.41;67.81
84957;BME280;75252;45.438;-73.814;2024-03-07T02:41:54;101801.00;;;4.38;67.22
84957;BME280;75252;45.438;-73.814;2024-03-07T02:44:20;101801.00;;;4.37;68.42
84957;BME280;75252;45.438;-73.814;2024-03-07T02:46:46;101798.38;;;4.35;66.90
84957;BME280;75252;45.438;-73.814;2024-03-07T02:49:14;101790.50;;;4.35;67.34
84957;BME280;75252;45.438;-73.814;2024-03-07T02:51:40;101802.75;;;4.33;68.02
84957;BME280;75252;45.438;-73.814;2024-03-07T02:54:09;101794.00;;;4.42;67.08
84957;BME280;75252;45.438;-73.814;2024-03-07T02:56:35;101790.50;;;4.37;66.88
84957;BME280;75252;45.438;-73.814;2024-03-07T02:59:01;101788.75;;;4.34;66.14
84957;BME280;75252;45.438;-73.814;2024-03-07T03:01:27;101782.66;;;4.34;66.44
84957;BME280;75252;45.438;-73.814;2024-03-07T03:03:53;101781.75;;;4.38;65.19
84957;BME280;75252;45.438;-73.814;2024-03-07T03:06:18;101778.22;;;4.40;63.89
84957;BME280;75252;45.438;-73.814;2024-03-07T03:08:47;101786.13;;;4.43;63.95
84957;BME280;75252;45.438;-73.814;2024-03-07T03:11:13;101783.50;;;4.36;65.84
84957;BME280;75252;45.438;-73.814;2024-03-07T03:13:40;101779.13;;;4.38;64.05
84957;BME280;75252;45.438;-73.814;2024-03-07T03:16:06;101779.13;;;4.39;62.42
84957;BME280;75252;45.438;-73.814;2024-03-07T03:18:34;101777.38;;;4.40;62.42
84957;BME280;75252;45.438;-73.814;2024-03-07T03:21:00;101776.47;;;4.42;61.26
84957;BME280;75252;45.438;-73.814;2024-03-07T03:23:28;101776.47;;;4.42;60.81
84957;BME280;75252;45.438;-73.814;2024-03-07T03:25:54;101774.75;;;4.41;61.33
84957;BME280;75252;45.438;-73.814;2024-03-07T03:28:21;101777.38;;;4.46;60.59
84957;BME280;75252;45.438;-73.814;2024-03-07T03:30:48;101782.63;;;4.41;61.09
84957;BME280;75252;45.438;-73.814;2024-03-07T03:33:15;101776.50;;;4.45;60.35
84957;BME280;75252;45.438;-73.814;2024-03-07T03:35:41;101780.00;;;4.40;61.74
84957;BME280;75252;45.438;-73.814;2024-03-07T03:38:07;101774.75;;;4.38;61.48
84957;BME280;75252;45.438;-73.814;2024-03-07T03:40:34;101782.63;;;4.37;62.68
84957;BME280;75252;45.438;-73.814;2024-03-07T03:43:00;101774.75;;;4.34;60.88
84957;BME280;75252;45.438;-73.814;2024-03-07T03:45:28;101774.75;;;4.41;58.97
84957;BME280;75252;45.438;-73.814;2024-03-07T03:47:54;101780.88;;;4.39;59.66
84957;BME280;75252;45.438;-73.814;2024-03-07T03:50:21;101771.25;;;4.41;59.88
84957;BME280;75252;45.438;-73.814;2024-03-07T03:52:50;101766.00;;;4.45;59.11
84957;BME280;75252;45.438;-73.814;2024-03-07T03:55:16;101765.13;;;4.43;58.43
84957;BME280;75252;45.438;-73.814;2024-03-07T03:57:43;101767.75;;;4.43;58.27
84957;BME280;75252;45.438;-73.814;2024-03-07T04:00:11;101770.38;;;4.39;60.60
84957;BME280;75252;45.438;-73.814;2024-03-07T04:02:43;101771.22;;;4.42;59.20
84957;BME280;75252;45.438;-73.814;2024-03-07T04:05:10;101760.75;;;4.39;59.08
84957;BME280;75252;45.438;-73.814;2024-03-07T04:07:37;101757.25;;;4.33;60.94
84957;BME280;75252;45.438;-73.814;2024-03-07T04:10:04;101750.25;;;4.39;59.26
84957;BME280;75252;45.438;-73.814;2024-03-07T04:12:37;101752.00;;;4.43;58.09
84957;BME280;75252;45.438;-73.814;2024-03-07T04:15:08;101752.00;;;4.48;57.70
84957;BME280;75252;45.438;-73.814;2024-03-07T04:17:35;101758.13;;;4.38;58.82
84957;BME280;75252;45.438;-73.814;2024-03-07T04:20:02;101761.59;;;4.44;59.54
84957;BME280;75252;45.438;-73.814;2024-03-07T04:22:36;101752.88;;;4.38;59.27
84957;BME280;75252;45.438;-73.814;2024-03-07T04:25:07;101750.22;;;4.41;57.27
84957;BME280;75252;45.438;-73.814;2024-03-07T04:27:35;101753.75;;;4.41;57.78
84957;BME280;75252;45.438;-73.814;2024-03-07T04:30:08;101738.00;;;4.41;57.78
84957;BME280;75252;45.438;-73.814;2024-03-07T04:32:38;101743.22;;;4.49;57.12
84957;BME280;75252;45.438;-73.814;2024-03-07T04:35:05;101742.34;;;4.47;57.51
84957;BME280;75252;45.438;-73.814;2024-03-07T04:37:36;101711.72;;;4.41;56.92
84957;BME280;75252;45.438;-73.814;2024-03-07T04:40:07;101729.25;;;4.39;58.46
84957;BME280;75252;45.438;-73.814;2024-03-07T04:42:48;101720.47;;;4.46;56.06
84957;BME280;75252;45.438;-73.814;2024-03-07T04:45:15;101729.25;;;4.44;57.65
84957;BME280;75252;45.438;-73.814;2024-03-07T04:47:42;101718.72;;;4.50;57.84
84957;BME280;75252;45.438;-73.814;2024-03-07T04:50:11;101723.97;;;4.47;57.58
84957;BME280;75252;45.438;-73.814;2024-03-07T04:52:40;101719.59;;;4.43;57.39
84957;BME280;75252;45.438;-73.814;2024-03-07T04:55:07;101711.75;;;4.40;57.58
84957;BME280;75252;45.438;-73.814;2024-03-07T04:57:37;101712.59;;;4.43;56.73
84957;BME280;75252;45.438;-73.814;2024-03-07T05:00:11;101711.72;;;4.38;58.34
84957;BME280;75252;45.438;-73.814;2024-03-07T05:02:43;101720.47;;;4.45;56.90
84957;BME280;75252;45.438;-73.814;2024-03-07T05:05:09;101714.34;;;4.46;55.88
84957;BME280;75252;45.438;-73.814;2024-03-07T05:07:35;101716.09;;;4.44;56.93
84957;BME280;75252;45.438;-73.814;2024-03-07T05:10:03;101706.47;;;4.38;56.64
84957;BME280;75252;45.438;-73.814;2024-03-07T05:12:30;101717.84;;;4.46;55.63
84957;BME280;75252;45.438;-73.814;2024-03-07T05:14:56;101709.09;;;4.47;56.17
84957;BME280;75252;45.438;-73.814;2024-03-07T05:17:22;101704.72;;;4.40;57.92
84957;BME280;75252;45.438;-73.814;2024-03-07T05:19:48;101702.09;;;4.45;55.41
84957;BME280;75252;45.438;-73.814;2024-03-07T05:22:15;101690.72;;;4.46;56.55
84957;BME280;75252;45.438;-73.814;2024-03-07T05:24:42;101698.56;;;4.51;55.77
84957;BME280;75252;45.438;-73.814;2024-03-07T05:27:08;101695.09;;;4.50;55.79
84957;BME280;75252;45.438;-73.814;2024-03-07T05:29:37;101695.06;;;4.53;55.50
84957;BME280;75252;45.438;-73.814;2024-03-07T05:32:22;101695.94;;;4.49;56.19
84957;BME280;75252;45.438;-73.814;2024-03-07T05:34:49;101694.22;;;4.50;56.46
84957;BME280;75252;45.438;-73.814;2024-03-07T05:37:14;101667.06;;;4.47;55.05
84957;BME280;75252;45.438;-73.814;2024-03-07T05:39:40;101683.69;;;4.53;56.64
84957;BME280;75252;45.438;-73.814;2024-03-07T05:42:06;101683.69;;;4.50;55.47
84957;BME280;75252;45.438;-73.814;2024-03-07T05:44:33;101679.34;;;4.39;57.25
84957;BME280;75252;45.438;-73.814;2024-03-07T05:46:59;101674.97;;;4.38;57.56
84957;BME280;75252;45.438;-73.814;2024-03-07T05:49:25;101681.97;;;4.36;56.10
84957;BME280;75252;45.438;-73.814;2024-03-07T05:51:51;101681.13;;;4.36;56.48
84957;BME280;75252;45.438;-73.814;2024-03-07T05:54:17;101670.59;;;4.34;56.18
84957;BME280;75252;45.438;-73.814;2024-03-07T05:56:43;101673.25;;;4.31;57.20
84957;BME280;75252;45.438;-73.814;2024-03-07T05:59:09;101668.00;;;4.25;57.64
84957;BME280;75252;45.438;-73.814;2024-03-07T06:01:38;101668.00;;;4.31;56.50
84957;BME280;75252;45.438;-73.814;2024-03-07T06:04:07;101665.38;;;4.25;57.31
84957;BME280;75252;45.438;-73.814;2024-03-07T06:06:37;101661.88;;;4.29;56.77
84957;BME280;75252;45.438;-73.814;2024-03-07T06:09:05;101665.38;;;4.27;57.08
84957;BME280;75252;45.438;-73.814;2024-03-07T06:11:37;101660.16;;;4.22;57.63
84957;BME280;75252;45.438;-73.814;2024-03-07T06:14:04;101666.28;;;4.21;57.05
84957;BME280;75252;45.438;-73.814;2024-03-07T06:16:32;101648.78;;;4.19;57.03
84957;BME280;75252;45.438;-73.814;2024-03-07T06:19:00;101648.78;;;4.20;56.26
84957;BME280;75252;45.438;-73.814;2024-03-07T06:21:27;101647.91;;;4.20;56.87
84957;BME280;75252;45.438;-73.814;2024-03-07T06:23:54;101646.16;;;4.19;56.80
84957;BME280;75252;45.438;-73.814;2024-03-07T06:26:37;101640.03;;;4.15;56.96
84957;BME280;75252;45.438;-73.814;2024-03-07T06:29:11;101640.94;;;4.14;57.52
84957;BME280;75252;45.438;-73.814;2024-03-07T06:31:37;101640.91;;;4.13;57.58
84957;BME280;75252;45.438;-73.814;2024-03-07T06:34:03;101642.66;;;4.11;57.82
84957;BME280;75252;45.438;-73.814;2024-03-07T06:36:30;101642.69;;;4.06;57.76
84957;BME280;75252;45.438;-73.814;2024-03-07T06:38:56;101645.31;;;4.06;57.36
84957;BME280;75252;45.438;-73.814;2024-03-07T06:41:22;101639.22;;;4.03;58.27
84957;BME280;75252;45.438;-73.814;2024-03-07T06:43:48;101641.84;;;4.03;57.49
84957;BME280;75252;45.438;-73.814;2024-03-07T06:46:18;101641.84;;;4.00;57.71
84957;BME280;75252;45.438;-73.814;2024-03-07T06:48:45;101637.47;;;3.99;58.12
84957;BME280;75252;45.438;-73.814;2024-03-07T06:51:11;101640.09;;;3.91;57.71
84957;BME280;75252;45.438;-73.814;2024-03-07T06:53:38;101626.09;;;4.00;57.07
84957;BME280;75252;45.438;-73.814;2024-03-07T06:56:05;101626.13;;;3.97;57.30
84957;BME280;75252;45.438;-73.814;2024-03-07T06:58:32;101634.88;;;3.88;58.53
84957;BME280;75252;45.438;-73.814;2024-03-07T07:00:58;101634.88;;;3.85;58.20
84957;BME280;75252;45.438;-73.814;2024-03-07T07:03:26;101639.25;;;3.85;58.69
84957;BME280;75252;45.438;-73.814;2024-03-07T07:05:54;101633.13;;;3.80;58.22
84957;BME280;75252;45.438;-73.814;2024-03-07T07:08:20;101636.59;;;3.88;57.83
84957;BME280;75252;45.438;-73.814;2024-03-07T07:10:47;101629.63;;;3.78;58.18
84957;BME280;75252;45.438;-73.814;2024-03-07T07:13:13;101627.00;;;3.70;59.35
84957;BME280;75252;45.438;-73.814;2024-03-07T07:15:39;101634.03;;;3.64;58.83
84957;BME280;75252;45.438;-73.814;2024-03-07T07:18:05;101627.91;;;3.65;58.31
84957;BME280;75252;45.438;-73.814;2024-03-07T07:20:33;101634.91;;;3.61;59.43
84957;BME280;75252;45.438;-73.814;2024-03-07T07:23:02;101635.75;;;3.60;58.90
84957;BME280;75252;45.438;-73.814;2024-03-07T07:25:32;101626.16;;;3.65;58.02
84957;BME280;75252;45.438;-73.814;2024-03-07T07:27:58;101630.50;;;3.60;58.46
84957;BME280;75252;45.438;-73.814;2024-03-07T07:30:24;101620.91;;;3.53;58.96
84957;BME280;75252;45.438;-73.814;2024-03-07T07:32:52;101625.28;;;3.58;58.33
84957;BME280;75252;45.438;-73.814;2024-03-07T07:35:19;101635.75;;;3.54;59.37
84957;BME280;75252;45.438;-73.814;2024-03-07T07:37:47;101625.28;;;3.49;58.77
84957;BME280;75252;45.438;-73.814;2024-03-07T07:40:18;101649.75;;;3.51;58.48
84957;BME280;75252;45.438;-73.814;2024-03-07T07:42:45;101646.28;;;3.55;57.80
84957;BME280;75252;45.438;-73.814;2024-03-07T07:45:13;101642.78;;;3.53;58.10
84957;BME280;75252;45.438;-73.814;2024-03-07T07:47:43;101639.28;;;3.51;58.09
84957;BME280;75252;45.438;-73.814;2024-03-07T07:50:14;101639.28;;;3.51;56.97
84957;BME280;75252;45.438;-73.814;2024-03-07T07:55:09;101639.25;;;3.48;56.37
84957;BME280;75252;45.438;-73.814;2024-03-07T07:57:45;101643.66;;;3.49;56.59
84957;BME280;75252;45.438;-73.814;2024-03-07T08:00:16;101637.53;;;3.49;56.56
84957;BME280;75252;45.438;-73.814;2024-03-07T08:02:58;101654.13;;;3.45;57.55
84957;BME280;75252;45.438;-73.814;2024-03-07T08:05:27;101655.88;;;3.43;56.76
84957;BME280;75252;45.438;-73.814;2024-03-07T08:07:57;101656.75;;;3.43;56.76
84957;BME280;75252;45.438;-73.814;2024-03-07T08:10:28;101660.25;;;3.47;56.57
84957;BME280;75252;45.438;-73.814;2024-03-07T08:12:57;101661.09;;;3.46;56.21
84957;BME280;75252;45.438;-73.814;2024-03-07T08:15:25;101652.38;;;3.41;56.95
84957;BME280;75252;45.438;-73.814;2024-03-07T08:17:51;101654.13;;;3.46;56.02
84957;BME280;75252;45.438;-73.814;2024-03-07T08:20:19;101648.00;;;3.47;55.42
84957;BME280;75252;45.438;-73.814;2024-03-07T08:22:49;101661.09;;;3.44;56.80
84957;BME280;75252;45.438;-73.814;2024-03-07T08:25:19;101657.59;;;3.44;55.85
84957;BME280;75252;45.438;-73.814;2024-03-07T08:27:47;101664.59;;;3.45;55.74
84957;BME280;75252;45.438;-73.814;2024-03-07T08:30:13;101655.88;;;3.43;56.19
84957;BME280;75252;45.438;-73.814;2024-03-07T08:32:40;101661.13;;;3.40;56.22
84957;BME280;75252;45.438;-73.814;2024-03-07T08:35:08;101667.22;;;3.39;55.91
84957;BME280;75252;45.438;-73.814;2024-03-07T08:37:41;101661.13;;;3.41;55.09
84957;BME280;75252;45.438;-73.814;2024-03-07T08:40:08;101667.22;;;3.34;55.84
84957;BME280;75252;45.438;-73.814;2024-03-07T08:42:46;101649.75;;;3.35;55.62
84957;BME280;75252;45.438;-73.814;2024-03-07T08:45:12;101662.88;;;3.39;54.81
84957;BME280;75252;45.438;-73.814;2024-03-07T08:47:43;101658.50;;;3.41;54.90
84957;BME280;75252;45.438;-73.814;2024-03-07T08:50:09;101656.72;;;3.40;55.50
84957;BME280;75252;45.438;-73.814;2024-03-07T08:52:36;101670.72;;;3.35;55.79
84957;BME280;75252;45.438;-73.814;2024-03-07T08:55:22;101651.47;;;3.34;55.08
84957;BME280;75252;45.438;-73.814;2024-03-07T08:57:48;101667.22;;;3.33;55.87
84957;BME280;75252;45.438;-73.814;2024-03-07T09:00:16;101666.34;;;3.31;56.10
84957;BME280;75252;45.438;-73.814;2024-03-07T09:02:53;101658.47;;;3.32;55.00
84957;BME280;75252;45.438;-73.814;2024-03-07T09:05:20;101674.22;;;3.35;54.67
84957;BME280;75252;45.438;-73.814;2024-03-07T09:07:48;101667.22;;;3.31;54.96
84957;BME280;75252;45.438;-73.814;2024-03-07T09:10:14;101665.47;;;3.32;55.04
84957;BME280;75252;45.438;-73.814;2024-03-07T09:12:41;101670.69;;;3.30;54.86
84957;BME280;75252;45.438;-73.814;2024-03-07T09:15:08;101665.47;;;3.29;55.89
84957;BME280;75252;45.438;-73.814;2024-03-07T09:17:38;101659.34;;;3.34;54.89
84957;BME280;75252;45.438;-73.814;2024-03-07T09:20:05;101670.72;;;3.27;55.81
84957;BME280;75252;45.438;-73.814;2024-03-07T09:22:31;101671.59;;;3.31;54.87
84957;BME280;75252;45.438;-73.814;2024-03-07T09:24:58;101675.06;;;3.25;55.73
84957;BME280;75252;45.438;-73.814;2024-03-07T09:27:25;101679.44;;;3.29;54.10
84957;BME280;75252;45.438;-73.814;2024-03-07T09:29:51;101678.56;;;3.26;55.34
84957;BME280;75252;45.438;-73.814;2024-03-07T09:32:17;101680.31;;;3.21;54.72
84957;BME280;75252;45.438;-73.814;2024-03-07T09:34:43;101675.06;;;3.21;55.31
84957;BME280;75252;45.438;-73.814;2024-03-07T09:37:09;101668.06;;;3.17;55.49
84957;BME280;75252;45.438;-73.814;2024-03-07T09:39:35;101666.31;;;3.17;54.95
84957;BME280;75252;45.438;-73.814;2024-03-07T09:42:08;101675.94;;;3.21;54.26
84957;BME280;75252;45.438;-73.814;2024-03-07T09:44:36;101682.94;;;3.18;54.64
84957;BME280;75252;45.438;-73.814;2024-03-07T09:47:05;101689.91;;;3.17;54.57
84957;BME280;75252;45.438;-73.814;2024-03-07T09:49:32;101694.28;;;3.20;54.41
84957;BME280;75252;45.438;-73.814;2024-03-07T09:52:04;101703.00;;;3.19;54.76
84957;BME280;75252;45.438;-73.814;2024-03-07T09:54:34;101696.03;;;3.10;55.02
84957;BME280;75252;45.438;-73.814;2024-03-07T09:57:02;101706.47;;;3.09;55.08
84957;BME280;75252;45.438;-73.814;2024-03-07T09:59:29;101708.25;;;3.14;54.97
84957;BME280;75252;45.438;-73.814;2024-03-07T10:01:59;101704.75;;;3.14;54.07
84957;BME280;75252;45.438;-73.814;2024-03-07T10:07:09;101724.84;;;3.12;55.11
84957;BME280;75252;45.438;-73.814;2024-03-07T10:09:39;101728.34;;;3.12;54.23
84957;BME280;75252;45.438;-73.814;2024-03-07T10:12:09;101733.53;;;3.05;55.06
84957;BME280;75252;45.438;-73.814;2024-03-07T10:14:58;101737.03;;;3.05;55.95
84957;BME280;75252;45.438;-73.814;2024-03-07T10:17:24;101739.66;;;3.07;54.99
84957;BME280;75252;45.438;-73.814;2024-03-07T10:19:55;101741.44;;;3.17;53.88
84957;BME280;75252;45.438;-73.814;2024-03-07T10:22:21;101749.28;;;3.11;54.63
84957;BME280;75252;45.438;-73.814;2024-03-07T10:24:56;101756.28;;;3.12;53.83
84957;BME280;75252;45.438;-73.814;2024-03-07T10:27:27;101765.00;;;3.11;54.04
84957;BME280;75252;45.438;-73.814;2024-03-07T10:29:54;101764.16;;;3.16;52.57
84957;BME280;75252;45.438;-73.814;2024-03-07T10:32:24;101773.75;;;3.17;52.90
84957;BME280;75252;45.438;-73.814;2024-03-07T10:34:51;101781.59;;;3.13;54.58
84957;BME280;75252;45.438;-73.814;2024-03-07T10:37:18;101776.34;;;3.10;54.38
84957;BME280;75252;45.438;-73.814;2024-03-07T10:39:47;101781.56;;;3.04;54.95
84957;BME280;75252;45.438;-73.814;2024-03-07T10:42:18;101784.19;;;3.07;54.49
84957;BME280;75252;45.438;-73.814;2024-03-07T10:44:48;101791.16;;;3.03;54.21
84957;BME280;75252;45.438;-73.814;2024-03-07T10:47:19;101789.44;;;3.05;54.08
84957;BME280;75252;45.438;-73.814;2024-03-07T10:50:17;101786.81;;;3.07;54.02
84957;BME280;75252;45.438;-73.814;2024-03-07T10:52:59;101787.66;;;3.00;54.08
84957;BME280;75252;45.438;-73.814;2024-03-07T10:55:34;101786.81;;;3.02;54.25
84957;BME280;75252;45.438;-73.814;2024-03-07T11:00:51;101793.78;;;3.00;54.00
84957;BME280;75252;45.438;-73.814;2024-03-07T11:03:20;101797.25;;;2.98;54.16
84957;BME280;75252;45.438;-73.814;2024-03-07T11:05:46;101801.59;;;2.91;54.34
84957;BME280;75252;45.438;-73.814;2024-03-07T11:08:13;101792.88;;;2.94;53.87
84957;BME280;75252;45.438;-73.814;2024-03-07T11:10:40;101796.34;;;2.88;54.46
84957;BME280;75252;45.438;-73.814;2024-03-07T11:13:08;101811.22;;;2.91;53.93
84957;BME280;75252;45.438;-73.814;2024-03-07T11:15:42;101813.78;;;2.86;54.62
84957;BME280;75252;45.438;-73.814;2024-03-07T11:18:10;101810.31;;;2.89;54.05
84957;BME280;75252;45.438;-73.814;2024-03-07T11:20:38;101820.75;;;2.83;54.53
84957;BME280;75252;45.438;-73.814;2024-03-07T11:23:26;101820.81;;;2.93;54.53
84957;BME280;75252;45.438;-73.814;2024-03-07T11:26:07;101816.44;;;2.91;54.73
84957;BME280;75252;45.438;-73.814;2024-03-07T11:28:38;101824.28;;;2.89;53.49
84957;BME280;75252;45.438;-73.814;2024-03-07T11:34:14;101835.63;;;2.88;54.11
84957;BME280;75252;45.438;-73.814;2024-03-07T11:36:45;101836.56;;;2.95;53.58
84957;BME280;75252;45.438;-73.814;2024-03-07T11:39:39;101833.91;;;2.92;53.67
84957;BME280;75252;45.438;-73.814;2024-03-07T11:42:08;101841.75;;;2.93;53.63
84957;BME280;75252;45.438;-73.814;2024-03-07T11:44:34;101832.19;;;2.97;53.41
84957;BME280;75252;45.438;-73.814;2024-03-07T11:47:05;101848.75;;;2.94;54.18
84957;BME280;75252;45.438;-73.814;2024-03-07T11:49:35;101868.00;;;2.98;54.11
84957;BME280;75252;45.438;-73.814;2024-03-07T11:52:04;101855.75;;;2.92;53.05
84957;BME280;75252;45.438;-73.814;2024-03-07T11:54:39;101866.25;;;2.97;53.87
84957;BME280;75252;45.438;-73.814;2024-03-07T11:57:09;101864.44;;;2.91;54.13
84957;BME280;75252;45.438;-73.814;2024-03-07T11:59:40;101864.47;;;2.93;54.30
84957;BME280;75252;45.438;-73.814;2024-03-07T12:02:13;101865.38;;;2.95;53.75
84957;BME280;75252;45.438;-73.814;2024-03-07T12:04:43;101853.13;;;2.94;54.14
84957;BME280;75252;45.438;-73.814;2024-03-07T12:07:10;101854.88;;;2.95;54.47
84957;BME280;75252;45.438;-73.814;2024-03-07T12:09:39;101860.09;;;2.90;54.43
84957;BME280;75252;45.438;-73.814;2024-03-07T12:12:08;101874.06;;;2.95;53.93
84957;BME280;75252;45.438;-73.814;2024-03-07T12:14:35;101867.09;;;2.94;53.94
84957;BME280;75252;45.438;-73.814;2024-03-07T12:17:01;101880.25;;;3.00;54.17
84957;BME280;75252;45.438;-73.814;2024-03-07T12:19:33;101878.47;;;2.99;54.22
84957;BME280;75252;45.438;-73.814;2024-03-07T12:22:02;101880.25;;;2.99;53.33
84957;BME280;75252;45.438;-73.814;2024-03-07T12:24:29;101878.47;;;2.99;54.32
84957;BME280;75252;45.438;-73.814;2024-03-07T12:27:09;101881.97;;;3.03;53.55
84957;BME280;75252;45.438;-73.814;2024-03-07T12:29:36;101875.88;;;3.04;52.82
84957;BME280;75252;45.438;-73.814;2024-03-07T12:32:11;101882.94;;;3.12;53.46
84957;BME280;75252;45.438;-73.814;2024-03-07T12:34:43;101882.03;;;3.10;52.80
84957;BME280;75252;45.438;-73.814;2024-03-07T12:37:17;101882.94;;;3.17;52.82
84957;BME280;75252;45.438;-73.814;2024-03-07T12:39:44;101889.09;;;3.26;52.66
84957;BME280;75252;45.438;-73.814;2024-03-07T12:42:18;101888.22;;;3.29;51.98
84957;BME280;75252;45.438;-73.814;2024-03-07T12:44:47;101894.38;;;3.31;52.58
84957;BME280;75252;45.438;-73.814;2024-03-07T12:47:14;101884.78;;;3.37;51.86
84957;BME280;75252;45.438;-73.814;2024-03-07T12:49:41;101894.44;;;3.47;51.32
84957;BME280;75252;45.438;-73.814;2024-03-07T12:52:07;101904.06;;;3.50;51.90
84957;BME280;75252;45.438;-73.814;2024-03-07T12:54:34;101882.22;;;3.51;51.10
84957;BME280;75252;45.438;-73.814;2024-03-07T12:57:07;101891.84;;;3.56;51.28